AAL743 KPHX-KDFW
Flight info
| Callsign | AAL743 |
|---|---|
| Flight time | 1h 42m |
| Altitude | 37000 |
| Route | BROAK1 MAXXO TXO TURKI VKTRY2 |
| Aircraft | B738/M-SDE2E3FGHIRWXY/LB1 |
Departure
| Time | 2026-05-05 00:16 |
|---|---|
| Airport | Phoenix Sky Harbor International Airport (KPHX) |
Arrival
| Time | 2026-05-05 01:58 |
|---|---|
| Airport | Dallas Fort Worth International Airport (KDFW) |
| Time | Latitude | Longitude | Altitude | Speed | Heading |
|---|---|---|---|---|---|
| 2026-05-04 23:50 | 33.43648 | -111.99989 | 1123 ft | 0 kts | 89° |
| 2026-05-05 00:04 | 33.43648 | -111.99992 | 1116 ft | 3 kts | 89° |
| 2026-05-05 00:05 | 33.43648 | -112.00023 | 1119 ft | 4 kts | 89° |
| 2026-05-05 00:05 | 33.43648 | -112.00056 | 1121 ft | 4 kts | 89° |
| 2026-05-05 00:05 | 33.43647 | -112.00079 | 1123 ft | 1 kts | 89° |
| 2026-05-05 00:07 | 33.43650 | -112.00057 | 1123 ft | 6 kts | 72° |
| 2026-05-05 00:08 | 33.43692 | -112.00029 | 1119 ft | 8 kts | 9° |
| 2026-05-05 00:08 | 33.43752 | -112.00029 | 1120 ft | 9 kts | 359° |
| 2026-05-05 00:08 | 33.43809 | -112.00030 | 1123 ft | 5 kts | 359° |
| 2026-05-05 00:08 | 33.43812 | -112.00030 | 1119 ft | 1 kts | 359° |
| 2026-05-05 00:09 | 33.43856 | -112.00031 | 1117 ft | 10 kts | 359° |
| 2026-05-05 00:09 | 33.43904 | -112.00085 | 1119 ft | 10 kts | 278° |
| 2026-05-05 00:09 | 33.43905 | -112.00170 | 1118 ft | 10 kts | 269° |
| 2026-05-05 00:09 | 33.43904 | -112.00254 | 1121 ft | 10 kts | 269° |
| 2026-05-05 00:10 | 33.43902 | -112.00336 | 1123 ft | 10 kts | 263° |
| 2026-05-05 00:10 | 33.43855 | -112.00386 | 1119 ft | 10 kts | 189° |
| 2026-05-05 00:10 | 33.43785 | -112.00379 | 1119 ft | 11 kts | 173° |
| 2026-05-05 00:10 | 33.43703 | -112.00379 | 1117 ft | 13 kts | 180° |
| 2026-05-05 00:11 | 33.43601 | -112.00380 | 1117 ft | 16 kts | 180° |
| 2026-05-05 00:11 | 33.43483 | -112.00380 | 1117 ft | 16 kts | 180° |
| 2026-05-05 00:11 | 33.43418 | -112.00380 | 1123 ft | 0 kts | 180° |
| 2026-05-05 00:11 | 33.43414 | -112.00380 | 1123 ft | 3 kts | 180° |
| 2026-05-05 00:12 | 33.43368 | -112.00380 | 1123 ft | 2 kts | 180° |
| 2026-05-05 00:12 | 33.43361 | -112.00380 | 1123 ft | 1 kts | 180° |
| 2026-05-05 00:12 | 33.43348 | -112.00380 | 1123 ft | 6 kts | 180° |
| 2026-05-05 00:12 | 33.43276 | -112.00381 | 1123 ft | 13 kts | 180° |
| 2026-05-05 00:13 | 33.43214 | -112.00322 | 1119 ft | 13 kts | 93° |
| 2026-05-05 00:13 | 33.43214 | -112.00215 | 1116 ft | 13 kts | 89° |
| 2026-05-05 00:13 | 33.43213 | -112.00109 | 1115 ft | 13 kts | 90° |
| 2026-05-05 00:13 | 33.43214 | -111.99988 | 1114 ft | 15 kts | 90° |
| 2026-05-05 00:14 | 33.43216 | -111.99852 | 1114 ft | 17 kts | 89° |
| 2026-05-05 00:14 | 33.43216 | -111.99706 | 1121 ft | 18 kts | 90° |
| 2026-05-05 00:14 | 33.43216 | -111.99551 | 1118 ft | 19 kts | 91° |
| 2026-05-05 00:14 | 33.43213 | -111.99419 | 1122 ft | 10 kts | 90° |
| 2026-05-05 00:15 | 33.43194 | -111.99346 | 1119 ft | 10 kts | 140° |
| 2026-05-05 00:15 | 33.43131 | -111.99350 | 1122 ft | 10 kts | 209° |
| 2026-05-05 00:15 | 33.43104 | -111.99424 | 1115 ft | 11 kts | 267° |
| 2026-05-05 00:15 | 33.43106 | -111.99728 | 1123 ft | 72 kts | 271° |
| 2026-05-05 00:16 | 33.43105 | -112.00604 | 1124 ft | 135 kts | 270° |
| 2026-05-05 00:16 | 33.43116 | -112.01934 | 1263 ft | 178 kts | 272° |
| 2026-05-05 00:16 | 33.43131 | -112.03468 | 1965 ft | 187 kts | 269° |
| 2026-05-05 00:16 | 33.43090 | -112.05037 | 2731 ft | 197 kts | 268° |
| 2026-05-05 00:17 | 33.43010 | -112.06783 | 2980 ft | 222 kts | 261° |
| 2026-05-05 00:17 | 33.42523 | -112.08595 | 3418 ft | 236 kts | 248° |
| 2026-05-05 00:17 | 33.41895 | -112.10523 | 3749 ft | 257 kts | 248° |
| 2026-05-05 00:17 | 33.41272 | -112.12501 | 4512 ft | 262 kts | 249° |
| 2026-05-05 00:18 | 33.40617 | -112.14545 | 5430 ft | 264 kts | 243° |
| 2026-05-05 00:18 | 33.39496 | -112.16267 | 6299 ft | 265 kts | 218° |
| 2026-05-05 00:18 | 33.37860 | -112.17364 | 7157 ft | 268 kts | 203° |
| 2026-05-05 00:18 | 33.36068 | -112.17882 | 7980 ft | 275 kts | 180° |
| 2026-05-05 00:19 | 33.34158 | -112.17402 | 8810 ft | 280 kts | 166° |
| 2026-05-05 00:19 | 33.32350 | -112.16732 | 9561 ft | 284 kts | 166° |
| 2026-05-05 00:19 | 33.30452 | -112.16031 | 10336 ft | 288 kts | 166° |
| 2026-05-05 00:19 | 33.28573 | -112.14947 | 10594 ft | 320 kts | 144° |
| 2026-05-05 00:20 | 33.26921 | -112.13034 | 11024 ft | 337 kts | 139° |
| 2026-05-05 00:20 | 33.25334 | -112.10915 | 11667 ft | 349 kts | 127° |
| 2026-05-05 00:20 | 33.24439 | -112.08180 | 12408 ft | 363 kts | 103° |
| 2026-05-05 00:20 | 33.24451 | -112.05135 | 13114 ft | 373 kts | 84° |
| 2026-05-05 00:21 | 33.24853 | -112.02046 | 13733 ft | 380 kts | 83° |
| 2026-05-05 00:21 | 33.25269 | -111.98966 | 14364 ft | 385 kts | 83° |
| 2026-05-05 00:21 | 33.25670 | -111.95779 | 15001 ft | 390 kts | 84° |
| 2026-05-05 00:21 | 33.26188 | -111.92614 | 15594 ft | 398 kts | 71° |
| 2026-05-05 00:22 | 33.27406 | -111.89580 | 16241 ft | 402 kts | 62° |
| 2026-05-05 00:22 | 33.28729 | -111.86668 | 16841 ft | 407 kts | 61° |
| 2026-05-05 00:22 | 33.30091 | -111.83674 | 17418 ft | 412 kts | 61° |
| 2026-05-05 00:22 | 33.31456 | -111.80636 | 17970 ft | 417 kts | 61° |
| 2026-05-05 00:23 | 33.32823 | -111.77552 | 18541 ft | 422 kts | 62° |
| 2026-05-05 00:23 | 33.34209 | -111.74393 | 19108 ft | 426 kts | 62° |
| 2026-05-05 00:23 | 33.35567 | -111.71281 | 19664 ft | 430 kts | 62° |
| 2026-05-05 00:23 | 33.36957 | -111.68087 | 20200 ft | 435 kts | 62° |
| 2026-05-05 00:24 | 33.38362 | -111.64854 | 20685 ft | 440 kts | 62° |
| 2026-05-05 00:24 | 33.39798 | -111.61550 | 21191 ft | 444 kts | 62° |
| 2026-05-05 00:24 | 33.41210 | -111.58297 | 21681 ft | 448 kts | 62° |
| 2026-05-05 00:24 | 33.42650 | -111.54974 | 22163 ft | 452 kts | 63° |
| 2026-05-05 00:25 | 33.43961 | -111.51484 | 22594 ft | 456 kts | 69° |
| 2026-05-05 00:25 | 33.45071 | -111.47957 | 22998 ft | 460 kts | 71° |
| 2026-05-05 00:25 | 33.46146 | -111.44325 | 23428 ft | 464 kts | 72° |
| 2026-05-05 00:25 | 33.47245 | -111.40623 | 23824 ft | 469 kts | 71° |
| 2026-05-05 00:26 | 33.48350 | -111.36985 | 24214 ft | 472 kts | 71° |
| 2026-05-05 00:26 | 33.49520 | -111.33234 | 24621 ft | 476 kts | 70° |
| 2026-05-05 00:26 | 33.50677 | -111.29565 | 25064 ft | 479 kts | 70° |
| 2026-05-05 00:26 | 33.51862 | -111.25803 | 25365 ft | 485 kts | 71° |
| 2026-05-05 00:27 | 33.53052 | -111.21987 | 25635 ft | 491 kts | 71° |
| 2026-05-05 00:27 | 33.54199 | -111.18161 | 26033 ft | 493 kts | 72° |
| 2026-05-05 00:27 | 33.55318 | -111.14222 | 26369 ft | 496 kts | 73° |
| 2026-05-05 00:27 | 33.56408 | -111.10277 | 26654 ft | 501 kts | 73° |
| 2026-05-05 00:28 | 33.57498 | -111.06296 | 26884 ft | 505 kts | 73° |
| 2026-05-05 00:28 | 33.58599 | -111.02288 | 27223 ft | 507 kts | 72° |
| 2026-05-05 00:28 | 33.59713 | -110.98263 | 27508 ft | 511 kts | 72° |
| 2026-05-05 00:28 | 33.60842 | -110.94202 | 27757 ft | 516 kts | 72° |
| 2026-05-05 00:29 | 33.61980 | -110.90112 | 28053 ft | 519 kts | 72° |
| 2026-05-05 00:29 | 33.63127 | -110.85993 | 28361 ft | 521 kts | 72° |
| 2026-05-05 00:29 | 33.64279 | -110.81852 | 28635 ft | 525 kts | 72° |
| 2026-05-05 00:29 | 33.65435 | -110.77685 | 28915 ft | 528 kts | 72° |
| 2026-05-05 00:30 | 33.66598 | -110.73490 | 29200 ft | 531 kts | 72° |
| 2026-05-05 00:30 | 33.67766 | -110.69270 | 29417 ft | 535 kts | 72° |
| 2026-05-05 00:30 | 33.68942 | -110.65009 | 29651 ft | 539 kts | 72° |
| 2026-05-05 00:30 | 33.70121 | -110.60731 | 29922 ft | 541 kts | 72° |
| 2026-05-05 00:31 | 33.71307 | -110.56426 | 30176 ft | 545 kts | 72° |
| 2026-05-05 00:31 | 33.72496 | -110.52099 | 30405 ft | 548 kts | 72° |
| 2026-05-05 00:31 | 33.73692 | -110.47740 | 30630 ft | 551 kts | 72° |
| 2026-05-05 00:31 | 33.74893 | -110.43357 | 30874 ft | 553 kts | 72° |
| 2026-05-05 00:32 | 33.76098 | -110.38959 | 31089 ft | 556 kts | 72° |
| 2026-05-05 00:32 | 33.77306 | -110.34536 | 31314 ft | 558 kts | 72° |
| 2026-05-05 00:32 | 33.78518 | -110.30099 | 31600 ft | 559 kts | 72° |
| 2026-05-05 00:32 | 33.79726 | -110.25669 | 31965 ft | 558 kts | 72° |
| 2026-05-05 00:33 | 33.80932 | -110.21236 | 32262 ft | 558 kts | 72° |
| 2026-05-05 00:33 | 33.82141 | -110.16789 | 32466 ft | 561 kts | 72° |
| 2026-05-05 00:33 | 33.83353 | -110.12328 | 32696 ft | 561 kts | 72° |
| 2026-05-05 00:33 | 33.84563 | -110.07861 | 32995 ft | 561 kts | 72° |
| 2026-05-05 00:34 | 33.85768 | -110.03403 | 33318 ft | 560 kts | 72° |
| 2026-05-05 00:34 | 33.86971 | -109.98944 | 33562 ft | 561 kts | 72° |
| 2026-05-05 00:34 | 33.88179 | -109.94473 | 33793 ft | 563 kts | 72° |
| 2026-05-05 00:34 | 33.89386 | -109.89988 | 34031 ft | 564 kts | 72° |
| 2026-05-05 00:35 | 33.90590 | -109.85501 | 34292 ft | 564 kts | 72° |
| 2026-05-05 00:35 | 33.91792 | -109.81014 | 34579 ft | 563 kts | 72° |
| 2026-05-05 00:35 | 33.92994 | -109.76523 | 34850 ft | 563 kts | 72° |
| 2026-05-05 00:35 | 33.94178 | -109.72096 | 35122 ft | 563 kts | 72° |
| 2026-05-05 00:36 | 33.95373 | -109.67621 | 35417 ft | 561 kts | 72° |
| 2026-05-05 00:36 | 33.96566 | -109.63147 | 35726 ft | 560 kts | 72° |
| 2026-05-05 00:36 | 33.97755 | -109.58681 | 35944 ft | 560 kts | 72° |
| 2026-05-05 00:36 | 33.98944 | -109.54207 | 36109 ft | 561 kts | 72° |
| 2026-05-05 00:37 | 34.00131 | -109.49727 | 36319 ft | 561 kts | 72° |
| 2026-05-05 00:37 | 34.01316 | -109.45244 | 36482 ft | 562 kts | 72° |
| 2026-05-05 00:37 | 34.02503 | -109.40753 | 36652 ft | 563 kts | 72° |
| 2026-05-05 00:37 | 34.03687 | -109.36268 | 36926 ft | 560 kts | 72° |
| 2026-05-05 00:38 | 34.04866 | -109.31793 | 37077 ft | 561 kts | 72° |
| 2026-05-05 00:38 | 34.07222 | -109.22838 | 37054 ft | 557 kts | 72° |
| 2026-05-05 00:39 | 34.09535 | -109.14009 | 37047 ft | 549 kts | 72° |
| 2026-05-05 00:39 | 34.11833 | -109.05209 | 37058 ft | 550 kts | 72° |
| 2026-05-05 00:40 | 34.14122 | -108.96416 | 37058 ft | 550 kts | 72° |
| 2026-05-05 00:40 | 34.16410 | -108.87604 | 37047 ft | 550 kts | 72° |
| 2026-05-05 00:41 | 34.18688 | -108.78796 | 37044 ft | 549 kts | 72° |
| 2026-05-05 00:41 | 34.20960 | -108.69980 | 37039 ft | 550 kts | 72° |
| 2026-05-05 00:42 | 34.23225 | -108.61165 | 37042 ft | 549 kts | 72° |
| 2026-05-05 00:42 | 34.25486 | -108.52338 | 37035 ft | 550 kts | 72° |
| 2026-05-05 00:43 | 34.27738 | -108.43507 | 37026 ft | 549 kts | 72° |
| 2026-05-05 00:43 | 34.29981 | -108.34689 | 37028 ft | 549 kts | 72° |
| 2026-05-05 00:44 | 34.31841 | -108.27355 | 37027 ft | 548 kts | 72° |
| 2026-05-05 00:44 | 34.34071 | -108.18535 | 37025 ft | 548 kts | 72° |
| 2026-05-05 00:45 | 34.36292 | -108.09718 | 37025 ft | 547 kts | 72° |
| 2026-05-05 00:45 | 34.38424 | -108.00875 | 37003 ft | 547 kts | 80° |
| 2026-05-05 00:45 | 34.38730 | -107.96328 | 37051 ft | 540 kts | 92° |
| 2026-05-05 00:46 | 34.38746 | -107.91780 | 37025 ft | 540 kts | 94° |
| 2026-05-05 00:46 | 34.38707 | -107.82684 | 37005 ft | 541 kts | 93° |
| 2026-05-05 00:47 | 34.38735 | -107.73572 | 36995 ft | 542 kts | 92° |
| 2026-05-05 00:47 | 34.38824 | -107.64451 | 36983 ft | 542 kts | 92° |
| 2026-05-05 00:48 | 34.38921 | -107.55327 | 36968 ft | 542 kts | 92° |
| 2026-05-05 00:48 | 34.39005 | -107.46198 | 36959 ft | 542 kts | 92° |
| 2026-05-05 00:49 | 34.39078 | -107.37059 | 36946 ft | 543 kts | 92° |
| 2026-05-05 00:49 | 34.39142 | -107.27916 | 36939 ft | 543 kts | 92° |
| 2026-05-05 00:50 | 34.39201 | -107.18767 | 36939 ft | 544 kts | 91° |
| 2026-05-05 00:50 | 34.39253 | -107.09605 | 36942 ft | 545 kts | 92° |
| 2026-05-05 00:51 | 34.39298 | -107.00421 | 36937 ft | 545 kts | 91° |
| 2026-05-05 00:51 | 34.39336 | -106.91243 | 36922 ft | 545 kts | 91° |
| 2026-05-05 00:52 | 34.39368 | -106.82117 | 36932 ft | 545 kts | 91° |
| 2026-05-05 00:52 | 34.39394 | -106.72931 | 36928 ft | 546 kts | 91° |
| 2026-05-05 00:53 | 34.39505 | -106.63745 | 36928 ft | 546 kts | 88° |
| 2026-05-05 00:53 | 34.39917 | -106.54573 | 36938 ft | 546 kts | 87° |
| 2026-05-05 00:54 | 34.40368 | -106.45409 | 36938 ft | 545 kts | 87° |
| 2026-05-05 00:54 | 34.40765 | -106.36252 | 36942 ft | 544 kts | 88° |
| 2026-05-05 00:55 | 34.41121 | -106.27109 | 36949 ft | 543 kts | 88° |
| 2026-05-05 00:55 | 34.41464 | -106.17969 | 36947 ft | 543 kts | 88° |
| 2026-05-05 00:56 | 34.41801 | -106.08852 | 36954 ft | 542 kts | 88° |
| 2026-05-05 00:56 | 34.42133 | -105.99739 | 36966 ft | 541 kts | 88° |
| 2026-05-05 00:57 | 34.42459 | -105.90634 | 36972 ft | 541 kts | 88° |
| 2026-05-05 00:57 | 34.42778 | -105.81543 | 36985 ft | 540 kts | 88° |
| 2026-05-05 00:58 | 34.43091 | -105.72451 | 36996 ft | 540 kts | 88° |
| 2026-05-05 00:58 | 34.43397 | -105.63352 | 36990 ft | 541 kts | 88° |
| 2026-05-05 00:59 | 34.43696 | -105.54233 | 36978 ft | 542 kts | 88° |
| 2026-05-05 00:59 | 34.43990 | -105.45099 | 36968 ft | 543 kts | 87° |
| 2026-05-05 01:00 | 34.44277 | -105.35946 | 36970 ft | 544 kts | 88° |
| 2026-05-05 01:00 | 34.44556 | -105.26780 | 36950 ft | 545 kts | 87° |
| 2026-05-05 01:01 | 34.44831 | -105.17606 | 36943 ft | 546 kts | 87° |
| 2026-05-05 01:01 | 34.45100 | -105.08411 | 36933 ft | 547 kts | 87° |
| 2026-05-05 01:02 | 34.45361 | -104.99199 | 36918 ft | 548 kts | 87° |
| 2026-05-05 01:02 | 34.45616 | -104.89969 | 36908 ft | 548 kts | 87° |
| 2026-05-05 01:03 | 34.45864 | -104.80738 | 36894 ft | 548 kts | 87° |
| 2026-05-05 01:03 | 34.46104 | -104.71513 | 36902 ft | 548 kts | 87° |
| 2026-05-05 01:04 | 34.46339 | -104.62287 | 36891 ft | 548 kts | 87° |
| 2026-05-05 01:04 | 34.46678 | -104.48443 | 36855 ft | 548 kts | 87° |
| 2026-05-05 01:05 | 34.46894 | -104.39223 | 36845 ft | 547 kts | 87° |
| 2026-05-05 01:05 | 34.47103 | -104.30004 | 36827 ft | 547 kts | 87° |
| 2026-05-05 01:06 | 34.47306 | -104.20799 | 36830 ft | 546 kts | 87° |
| 2026-05-05 01:06 | 34.47500 | -104.11663 | 36815 ft | 546 kts | 87° |
| 2026-05-05 01:07 | 34.47688 | -104.02466 | 36822 ft | 545 kts | 87° |
| 2026-05-05 01:07 | 34.47869 | -103.93291 | 36821 ft | 545 kts | 87° |
| 2026-05-05 01:08 | 34.48043 | -103.84111 | 36834 ft | 545 kts | 87° |
| 2026-05-05 01:08 | 34.48211 | -103.74868 | 36816 ft | 545 kts | 87° |
| 2026-05-05 01:09 | 34.48372 | -103.65689 | 36822 ft | 544 kts | 87° |
| 2026-05-05 01:09 | 34.48526 | -103.56516 | 36827 ft | 545 kts | 87° |
| 2026-05-05 01:10 | 34.48674 | -103.47317 | 36819 ft | 546 kts | 87° |
| 2026-05-05 01:10 | 34.48814 | -103.38119 | 36826 ft | 546 kts | 87° |
| 2026-05-05 01:11 | 34.48948 | -103.28904 | 36828 ft | 547 kts | 87° |
| 2026-05-05 01:11 | 34.49076 | -103.19676 | 36831 ft | 548 kts | 87° |
| 2026-05-05 01:12 | 34.49196 | -103.10432 | 36835 ft | 549 kts | 87° |
| 2026-05-05 01:12 | 34.49308 | -103.01183 | 36844 ft | 549 kts | 87° |
| 2026-05-05 01:13 | 34.49415 | -102.91921 | 36845 ft | 550 kts | 87° |
| 2026-05-05 01:13 | 34.49452 | -102.82708 | 36831 ft | 552 kts | 92° |
| 2026-05-05 01:14 | 34.48627 | -102.73460 | 36835 ft | 552 kts | 98° |
| 2026-05-05 01:14 | 34.47549 | -102.64239 | 36822 ft | 553 kts | 98° |
| 2026-05-05 01:15 | 34.46512 | -102.55011 | 36820 ft | 553 kts | 97° |
| 2026-05-05 01:15 | 34.45535 | -102.45767 | 36812 ft | 553 kts | 97° |
| 2026-05-05 01:16 | 34.44573 | -102.36531 | 36801 ft | 553 kts | 97° |
| 2026-05-05 01:16 | 34.43601 | -102.27288 | 36803 ft | 552 kts | 97° |
| 2026-05-05 01:17 | 34.42619 | -102.18058 | 36793 ft | 552 kts | 97° |
| 2026-05-05 01:17 | 34.41629 | -102.08859 | 36789 ft | 551 kts | 97° |
| 2026-05-05 01:18 | 34.40633 | -101.99666 | 36785 ft | 550 kts | 97° |
| 2026-05-05 01:18 | 34.39632 | -101.90481 | 36777 ft | 550 kts | 97° |
| 2026-05-05 01:19 | 34.38624 | -101.81313 | 36775 ft | 549 kts | 97° |
| 2026-05-05 01:19 | 34.37612 | -101.72163 | 36776 ft | 548 kts | 97° |
| 2026-05-05 01:20 | 34.36594 | -101.63013 | 36776 ft | 549 kts | 97° |
| 2026-05-05 01:20 | 34.35569 | -101.53860 | 36773 ft | 549 kts | 97° |
| 2026-05-05 01:21 | 34.34534 | -101.44700 | 36768 ft | 550 kts | 97° |
| 2026-05-05 01:21 | 34.33491 | -101.35523 | 36768 ft | 550 kts | 97° |
| 2026-05-05 01:22 | 34.32442 | -101.26347 | 36763 ft | 551 kts | 97° |
| 2026-05-05 01:22 | 34.31383 | -101.17163 | 36752 ft | 552 kts | 97° |
| 2026-05-05 01:23 | 34.30317 | -101.07960 | 36754 ft | 552 kts | 97° |
| 2026-05-05 01:23 | 34.29241 | -100.98756 | 36746 ft | 553 kts | 97° |
| 2026-05-05 01:24 | 34.28156 | -100.89553 | 36731 ft | 553 kts | 97° |
| 2026-05-05 01:24 | 34.27064 | -100.80332 | 36720 ft | 554 kts | 97° |
| 2026-05-05 01:25 | 34.25965 | -100.71116 | 36713 ft | 554 kts | 97° |
| 2026-05-05 01:25 | 34.24859 | -100.61889 | 36704 ft | 555 kts | 97° |
| 2026-05-05 01:26 | 34.23934 | -100.54226 | 36689 ft | 555 kts | 97° |
| 2026-05-05 01:26 | 34.22816 | -100.45009 | 36688 ft | 554 kts | 97° |
| 2026-05-05 01:27 | 34.21683 | -100.35732 | 36698 ft | 554 kts | 97° |
| 2026-05-05 01:27 | 34.20557 | -100.26594 | 36681 ft | 554 kts | 98° |
| 2026-05-05 01:28 | 34.19692 | -100.22071 | 36673 ft | 553 kts | 109° |
| 2026-05-05 01:28 | 34.18434 | -100.17694 | 36698 ft | 551 kts | 112° |
| 2026-05-05 01:28 | 34.15631 | -100.09076 | 36689 ft | 551 kts | 114° |
| 2026-05-05 01:29 | 34.12866 | -100.00440 | 36686 ft | 552 kts | 112° |
| 2026-05-05 01:29 | 34.11526 | -99.96093 | 36469 ft | 552 kts | 112° |
| 2026-05-05 01:29 | 34.10210 | -99.91756 | 36210 ft | 550 kts | 112° |
| 2026-05-05 01:30 | 34.08906 | -99.87432 | 35958 ft | 547 kts | 112° |
| 2026-05-05 01:30 | 34.07774 | -99.83682 | 35739 ft | 548 kts | 112° |
| 2026-05-05 01:30 | 34.06460 | -99.79349 | 35491 ft | 551 kts | 111° |
| 2026-05-05 01:30 | 34.05139 | -99.75009 | 35258 ft | 553 kts | 112° |
| 2026-05-05 01:31 | 34.03807 | -99.70649 | 35024 ft | 555 kts | 112° |
| 2026-05-05 01:31 | 34.02479 | -99.66313 | 34777 ft | 556 kts | 112° |
| 2026-05-05 01:31 | 34.01138 | -99.61939 | 34534 ft | 557 kts | 111° |
| 2026-05-05 01:31 | 33.99791 | -99.57552 | 34286 ft | 558 kts | 111° |
| 2026-05-05 01:32 | 33.98445 | -99.53167 | 34046 ft | 558 kts | 111° |
| 2026-05-05 01:32 | 33.97096 | -99.48786 | 33799 ft | 558 kts | 111° |
| 2026-05-05 01:32 | 33.95744 | -99.44413 | 33553 ft | 557 kts | 111° |
| 2026-05-05 01:32 | 33.94388 | -99.40047 | 33303 ft | 556 kts | 111° |
| 2026-05-05 01:33 | 33.93032 | -99.35696 | 33057 ft | 554 kts | 111° |
| 2026-05-05 01:33 | 33.91678 | -99.31359 | 32703 ft | 552 kts | 111° |
| 2026-05-05 01:33 | 33.90325 | -99.27028 | 32059 ft | 552 kts | 111° |
| 2026-05-05 01:33 | 33.88973 | -99.22702 | 31450 ft | 552 kts | 111° |
| 2026-05-05 01:34 | 33.87620 | -99.18379 | 30801 ft | 552 kts | 111° |
| 2026-05-05 01:34 | 33.86266 | -99.14057 | 30125 ft | 552 kts | 111° |
| 2026-05-05 01:34 | 33.84912 | -99.09740 | 29431 ft | 552 kts | 111° |
| 2026-05-05 01:34 | 33.83555 | -99.05420 | 28695 ft | 551 kts | 111° |
| 2026-05-05 01:35 | 33.82201 | -99.01116 | 27970 ft | 550 kts | 111° |
| 2026-05-05 01:35 | 33.80853 | -98.96842 | 27426 ft | 540 kts | 111° |
| 2026-05-05 01:35 | 33.79536 | -98.92667 | 26883 ft | 528 kts | 111° |
| 2026-05-05 01:35 | 33.78247 | -98.88583 | 26356 ft | 517 kts | 111° |
| 2026-05-05 01:36 | 33.76986 | -98.84596 | 25835 ft | 506 kts | 111° |
| 2026-05-05 01:36 | 33.75748 | -98.80686 | 25319 ft | 495 kts | 111° |
| 2026-05-05 01:36 | 33.74547 | -98.76899 | 24822 ft | 486 kts | 112° |
| 2026-05-05 01:36 | 33.73351 | -98.73143 | 24315 ft | 477 kts | 112° |
| 2026-05-05 01:37 | 33.72170 | -98.69460 | 23835 ft | 469 kts | 112° |
| 2026-05-05 01:37 | 33.70994 | -98.65798 | 23366 ft | 473 kts | 112° |
| 2026-05-05 01:37 | 33.69811 | -98.62118 | 22861 ft | 471 kts | 112° |
| 2026-05-05 01:37 | 33.68645 | -98.58476 | 22329 ft | 463 kts | 111° |
| 2026-05-05 01:38 | 33.67510 | -98.54899 | 21802 ft | 455 kts | 111° |
| 2026-05-05 01:38 | 33.66396 | -98.51377 | 21285 ft | 447 kts | 111° |
| 2026-05-05 01:38 | 33.65295 | -98.47893 | 20782 ft | 446 kts | 111° |
| 2026-05-05 01:38 | 33.64194 | -98.44417 | 20280 ft | 446 kts | 111° |
| 2026-05-05 01:39 | 33.63093 | -98.40951 | 19774 ft | 442 kts | 111° |
| 2026-05-05 01:39 | 33.62006 | -98.37531 | 19273 ft | 435 kts | 111° |
| 2026-05-05 01:39 | 33.60932 | -98.34159 | 18768 ft | 430 kts | 111° |
| 2026-05-05 01:39 | 33.59873 | -98.30838 | 18276 ft | 424 kts | 111° |
| 2026-05-05 01:40 | 33.58825 | -98.27553 | 17805 ft | 419 kts | 111° |
| 2026-05-05 01:40 | 33.57785 | -98.24299 | 17332 ft | 415 kts | 111° |
| 2026-05-05 01:40 | 33.56757 | -98.21085 | 16862 ft | 411 kts | 111° |
| 2026-05-05 01:40 | 33.55738 | -98.17906 | 16442 ft | 407 kts | 112° |
| 2026-05-05 01:41 | 33.54725 | -98.14761 | 16056 ft | 403 kts | 112° |
| 2026-05-05 01:41 | 33.53718 | -98.11640 | 15681 ft | 400 kts | 112° |
| 2026-05-05 01:41 | 33.52717 | -98.08541 | 15364 ft | 396 kts | 112° |
| 2026-05-05 01:41 | 33.51719 | -98.05451 | 15085 ft | 400 kts | 112° |
| 2026-05-05 01:42 | 33.50711 | -98.02335 | 14709 ft | 400 kts | 112° |
| 2026-05-05 01:42 | 33.49714 | -97.99248 | 14328 ft | 395 kts | 112° |
| 2026-05-05 01:42 | 33.48728 | -97.96202 | 13949 ft | 387 kts | 112° |
| 2026-05-05 01:42 | 33.47768 | -97.93239 | 13574 ft | 376 kts | 112° |
| 2026-05-05 01:43 | 33.46836 | -97.90358 | 13212 ft | 367 kts | 112° |
| 2026-05-05 01:43 | 33.45923 | -97.87523 | 12865 ft | 364 kts | 112° |
| 2026-05-05 01:43 | 33.45018 | -97.84709 | 12518 ft | 360 kts | 112° |
| 2026-05-05 01:43 | 33.44123 | -97.81929 | 12185 ft | 356 kts | 112° |
| 2026-05-05 01:44 | 33.43235 | -97.79172 | 11832 ft | 353 kts | 112° |
| 2026-05-05 01:44 | 33.42354 | -97.76437 | 11499 ft | 350 kts | 112° |
| 2026-05-05 01:44 | 33.41481 | -97.73731 | 11156 ft | 348 kts | 113° |
| 2026-05-05 01:44 | 33.40612 | -97.71039 | 10821 ft | 345 kts | 113° |
| 2026-05-05 01:45 | 33.39750 | -97.68372 | 10490 ft | 342 kts | 114° |
| 2026-05-05 01:45 | 33.38897 | -97.65738 | 10146 ft | 335 kts | 114° |
| 2026-05-05 01:45 | 33.37945 | -97.63252 | 9815 ft | 323 kts | 127° |
| 2026-05-05 01:45 | 33.36652 | -97.61114 | 9538 ft | 312 kts | 132° |
| 2026-05-05 01:46 | 33.35350 | -97.59081 | 9235 ft | 305 kts | 132° |
| 2026-05-05 01:46 | 33.34072 | -97.57077 | 8977 ft | 301 kts | 132° |
| 2026-05-05 01:46 | 33.32816 | -97.55079 | 8698 ft | 300 kts | 132° |
| 2026-05-05 01:46 | 33.31574 | -97.53083 | 8426 ft | 298 kts | 131° |
| 2026-05-05 01:47 | 33.30345 | -97.51094 | 8147 ft | 296 kts | 132° |
| 2026-05-05 01:47 | 33.29140 | -97.49139 | 7885 ft | 295 kts | 132° |
| 2026-05-05 01:47 | 33.27927 | -97.47163 | 7602 ft | 295 kts | 130° |
| 2026-05-05 01:47 | 33.27118 | -97.44878 | 7294 ft | 307 kts | 103° |
| 2026-05-05 01:48 | 33.26940 | -97.42302 | 7039 ft | 307 kts | 98° |
| 2026-05-05 01:48 | 33.26831 | -97.39858 | 6754 ft | 306 kts | 98° |
| 2026-05-05 01:48 | 33.26717 | -97.37327 | 6452 ft | 304 kts | 98° |
| 2026-05-05 01:48 | 33.26604 | -97.34819 | 6166 ft | 301 kts | 98° |
| 2026-05-05 01:49 | 33.26486 | -97.32341 | 5899 ft | 295 kts | 102° |
| 2026-05-05 01:49 | 33.26028 | -97.30016 | 5706 ft | 280 kts | 113° |
| 2026-05-05 01:49 | 33.25396 | -97.27896 | 5611 ft | 262 kts | 121° |
| 2026-05-05 01:49 | 33.24647 | -97.25950 | 5361 ft | 255 kts | 122° |
| 2026-05-05 01:50 | 33.23866 | -97.24067 | 5006 ft | 250 kts | 128° |
| 2026-05-05 01:50 | 33.22887 | -97.22360 | 4595 ft | 248 kts | 132° |
| 2026-05-05 01:50 | 33.21873 | -97.20733 | 4409 ft | 238 kts | 133° |
| 2026-05-05 01:50 | 33.20914 | -97.19191 | 4309 ft | 225 kts | 133° |
| 2026-05-05 01:51 | 33.20005 | -97.17718 | 4074 ft | 217 kts | 133° |
| 2026-05-05 01:51 | 33.19112 | -97.16273 | 3627 ft | 216 kts | 133° |
| 2026-05-05 01:51 | 33.18220 | -97.14836 | 3218 ft | 214 kts | 133° |
| 2026-05-05 01:51 | 33.17332 | -97.13418 | 3045 ft | 214 kts | 133° |
| 2026-05-05 01:52 | 33.16429 | -97.11990 | 3016 ft | 216 kts | 133° |
| 2026-05-05 01:52 | 33.15534 | -97.10574 | 2996 ft | 211 kts | 133° |
| 2026-05-05 01:52 | 33.14659 | -97.09186 | 2983 ft | 206 kts | 133° |
| 2026-05-05 01:52 | 33.13821 | -97.07858 | 2985 ft | 194 kts | 133° |
| 2026-05-05 01:53 | 33.13018 | -97.06589 | 3004 ft | 191 kts | 133° |
| 2026-05-05 01:53 | 33.12035 | -97.05603 | 2983 ft | 182 kts | 166° |
| 2026-05-05 01:53 | 33.10800 | -97.05507 | 3004 ft | 181 kts | 179° |
| 2026-05-05 01:53 | 33.09539 | -97.05435 | 3005 ft | 182 kts | 179° |
| 2026-05-05 01:54 | 33.08269 | -97.05396 | 2996 ft | 182 kts | 180° |
| 2026-05-05 01:54 | 33.07037 | -97.05389 | 2978 ft | 172 kts | 181° |
| 2026-05-05 01:54 | 33.05889 | -97.05390 | 2990 ft | 160 kts | 181° |
| 2026-05-05 01:54 | 33.04786 | -97.05396 | 3009 ft | 158 kts | 182° |
| 2026-05-05 01:55 | 33.03682 | -97.05402 | 2936 ft | 160 kts | 182° |
| 2026-05-05 01:55 | 33.02787 | -97.05408 | 2798 ft | 164 kts | 181° |
| 2026-05-05 01:55 | 33.01649 | -97.05413 | 2584 ft | 162 kts | 181° |
| 2026-05-05 01:55 | 33.00545 | -97.05418 | 2368 ft | 158 kts | 181° |
| 2026-05-05 01:56 | 32.99448 | -97.05424 | 2168 ft | 156 kts | 181° |
| 2026-05-05 01:56 | 32.98403 | -97.05429 | 2000 ft | 145 kts | 180° |
| 2026-05-05 01:56 | 32.97401 | -97.05435 | 1784 ft | 141 kts | 180° |
| 2026-05-05 01:56 | 32.96410 | -97.05441 | 1623 ft | 144 kts | 180° |
| 2026-05-05 01:57 | 32.95399 | -97.05458 | 1441 ft | 147 kts | 180° |
| 2026-05-05 01:57 | 32.94381 | -97.05456 | 1257 ft | 146 kts | 180° |
| 2026-05-05 01:57 | 32.93357 | -97.05449 | 1044 ft | 151 kts | 180° |
| 2026-05-05 01:57 | 32.92332 | -97.05474 | 835 ft | 145 kts | 182° |
| 2026-05-05 01:58 | 32.91336 | -97.05461 | 637 ft | 142 kts | 181° |
| 2026-05-05 01:58 | 32.90434 | -97.05471 | 602 ft | 116 kts | 180° |
| 2026-05-05 01:58 | 32.89861 | -97.05474 | 606 ft | 21 kts | 179° |
| 2026-05-05 01:58 | 32.89692 | -97.05456 | 612 ft | 26 kts | 166° |
| 2026-05-05 01:59 | 32.89522 | -97.05362 | 603 ft | 28 kts | 148° |
| 2026-05-05 01:59 | 32.89417 | -97.05285 | 599 ft | 16 kts | 133° |
| 2026-05-05 01:59 | 32.89403 | -97.05150 | 596 ft | 17 kts | 89° |
| 2026-05-05 01:59 | 32.89402 | -97.05016 | 598 ft | 16 kts | 91° |
| 2026-05-05 02:00 | 32.89400 | -97.04886 | 597 ft | 15 kts | 90° |
| 2026-05-05 02:00 | 32.89426 | -97.04770 | 594 ft | 15 kts | 27° |
| 2026-05-05 02:00 | 32.89529 | -97.04766 | 596 ft | 15 kts | 359° |
| 2026-05-05 02:00 | 32.89638 | -97.04766 | 597 ft | 18 kts | 0° |
| 2026-05-05 02:01 | 32.89778 | -97.04765 | 596 ft | 23 kts | 0° |
| 2026-05-05 02:01 | 32.89869 | -97.04765 | 596 ft | 12 kts | 0° |
| 2026-05-05 02:01 | 32.89968 | -97.04764 | 598 ft | 16 kts | 0° |
| 2026-05-05 02:01 | 32.90090 | -97.04764 | 597 ft | 18 kts | 359° |
| 2026-05-05 02:02 | 32.90218 | -97.04762 | 596 ft | 18 kts | 1° |
| 2026-05-05 02:02 | 32.90342 | -97.04763 | 596 ft | 18 kts | 359° |
| 2026-05-05 02:02 | 32.90462 | -97.04764 | 597 ft | 16 kts | 0° |
| 2026-05-05 02:02 | 32.90572 | -97.04762 | 596 ft | 16 kts | 1° |
| 2026-05-05 02:03 | 32.90681 | -97.04760 | 596 ft | 16 kts | 1° |
| 2026-05-05 02:03 | 32.90805 | -97.04760 | 597 ft | 19 kts | 360° |
| 2026-05-05 02:03 | 32.90903 | -97.04720 | 600 ft | 15 kts | 68° |
| 2026-05-05 02:03 | 32.90907 | -97.04594 | 597 ft | 16 kts | 90° |
| 2026-05-05 02:04 | 32.90906 | -97.04449 | 600 ft | 18 kts | 90° |
| 2026-05-05 02:04 | 32.90906 | -97.04289 | 618 ft | 20 kts | 90° |
| 2026-05-05 02:04 | 32.90906 | -97.04126 | 608 ft | 20 kts | 90° |
| 2026-05-05 02:04 | 32.90904 | -97.03966 | 608 ft | 19 kts | 91° |
| 2026-05-05 02:05 | 32.90904 | -97.03811 | 604 ft | 19 kts | 89° |
| 2026-05-05 02:05 | 32.90905 | -97.03701 | 594 ft | 20 kts | 89° |
| 2026-05-05 02:05 | 32.90904 | -97.03458 | 585 ft | 18 kts | 90° |
| 2026-05-05 02:05 | 32.90903 | -97.03363 | 585 ft | 17 kts | 90° |
| 2026-05-05 02:06 | 32.90819 | -97.03309 | 585 ft | 12 kts | 182° |
| 2026-05-05 02:06 | 32.90762 | -97.03310 | 584 ft | 13 kts | 180° |
| 2026-05-05 02:06 | 32.90623 | -97.03311 | 584 ft | 17 kts | 180° |
| 2026-05-05 02:06 | 32.90537 | -97.03311 | 584 ft | 20 kts | 180° |
| 2026-05-05 02:07 | 32.90331 | -97.03312 | 584 ft | 24 kts | 180° |
| 2026-05-05 02:07 | 32.90171 | -97.03314 | 584 ft | 22 kts | 180° |
| 2026-05-05 02:07 | 32.90064 | -97.03314 | 584 ft | 24 kts | 180° |
| 2026-05-05 02:07 | 32.89947 | -97.03353 | 586 ft | 8 kts | 277° |
| 2026-05-05 02:08 | 32.89950 | -97.03406 | 586 ft | 11 kts | 266° |
| 2026-05-05 02:08 | 32.89948 | -97.03463 | 586 ft | 6 kts | 287° |
| 2026-05-05 02:08 | 32.89970 | -97.03502 | 586 ft | 6 kts | 309° |
| 2026-05-05 02:08 | 32.89976 | -97.03552 | 586 ft | 7 kts | 249° |
| 2026-05-05 02:09 | 32.89962 | -97.03584 | 586 ft | 1 kts | 242° |
| 2026-05-05 02:09 | 32.89961 | -97.03584 | 586 ft | 0 kts | 242° |